SEGU/GYE METAR and TAF weather

Enter ICAO airport designator
Station Type Date Time Source
SEGU METAR 2020/04/05 06:00 UTC NOAA

SEGU 050600Z 23005KT 9999 BKN033 BKN100 26/21 Q1008 NOSIG RMK A2979


Station Type Date Time Source
SEGU Decoded METAR 2020/04/05 06:00 UTC NOAA

Guayaquil / Simon Bolivar, Ecuador (SEGU) 02-09S 079-53W 9M
Apr 05, 2020 - 02:00 AM EDT / 2020.04.05 0600 UTC
Wind: from the SW (230 degrees) at 6 MPH (5 KT):0
Visibility: greater than 7 mile(s):0
Sky conditions: mostly cloudy
Temperature: 78 F (26 C)
Dew Point: 69 F (21 C)
Relative Humidity: 73%
Pressure (altimeter): 29.77 in. Hg (1008 hPa)
ob: SEGU 050600Z 23005KT 9999 BKN033 BKN100 26/21 Q1008 NOSIG RMK A2979
cycle: 6

Station Type Date Time Source
SEGU TAF 2020/04/05 06:31 UTC NOAA

TAF SEGU 050405Z 0506/0606 VRB03KT 9999 FEW010 BKN023
BECMG 0514/0516 04006KT SCT026 SCT100
BECMG 0523/0524 23004KT BKN023 BKN100
TEMPO 0600/0603 8000 RA TX32/0520Z TN24/0510Z

Example: see airport list